sensor_id;sensor_type;location;lat;lon;timestamp;temperature;humidity
57088;DHT22;42965;52.846;6.614;2023-10-31T00:00:18;11.60;99.90
57088;DHT22;42965;52.846;6.614;2023-10-31T00:02:44;11.70;99.90
57088;DHT22;42965;52.846;6.614;2023-10-31T00:05:10;11.70;99.90
57088;DHT22;42965;52.846;6.614;2023-10-31T00:07:36;11.60;99.90
57088;DHT22;42965;52.846;6.614;2023-10-31T00:10:03;11.70;99.90
57088;DHT22;42965;52.846;6.614;2023-10-31T00:12:29;11.70;99.90
57088;DHT22;42965;52.846;6.614;2023-10-31T00:14:56;11.70;99.90
57088;DHT22;42965;52.846;6.614;2023-10-31T00:17:22;11.70;99.90
57088;DHT22;42965;52.846;6.614;2023-10-31T00:19:48;11.70;99.90
57088;DHT22;42965;52.846;6.614;2023-10-31T00:22:15;11.70;99.90
57088;DHT22;42965;52.846;6.614;2023-10-31T00:24:41;11.70;99.90
57088;DHT22;42965;52.846;6.614;2023-10-31T00:27:08;11.70;99.90
57088;DHT22;42965;52.846;6.614;2023-10-31T00:29:35;11.70;99.90
57088;DHT22;42965;52.846;6.614;2023-10-31T00:32:01;11.60;99.90
57088;DHT22;42965;52.846;6.614;2023-10-31T00:34:28;11.70;99.90
57088;DHT22;42965;52.846;6.614;2023-10-31T00:36:55;11.70;99.90
57088;DHT22;42965;52.846;6.614;2023-10-31T00:39:21;11.70;99.90
57088;DHT22;42965;52.846;6.614;2023-10-31T00:41:49;11.70;99.90
57088;DHT22;42965;52.846;6.614;2023-10-31T00:44:16;11.70;99.90
57088;DHT22;42965;52.846;6.614;2023-10-31T00:46:42;11.70;99.90
57088;DHT22;42965;52.846;6.614;2023-10-31T00:49:09;11.60;99.90
57088;DHT22;42965;52.846;6.614;2023-10-31T00:51:36;11.60;99.90
57088;DHT22;42965;52.846;6.614;2023-10-31T00:54:02;11.50;99.90
57088;DHT22;42965;52.846;6.614;2023-10-31T00:56:28;11.40;99.90
57088;DHT22;42965;52.846;6.614;2023-10-31T00:58:54;11.30;99.90
57088;DHT22;42965;52.846;6.614;2023-10-31T01:01:20;11.30;99.90
57088;DHT22;42965;52.846;6.614;2023-10-31T01:03:47;11.20;99.90
57088;DHT22;42965;52.846;6.614;2023-10-31T01:06:13;11.20;99.90
57088;DHT22;42965;52.846;6.614;2023-10-31T01:08:39;11.20;99.90
57088;DHT22;42965;52.846;6.614;2023-10-31T01:11:05;11.10;99.90
57088;DHT22;42965;52.846;6.614;2023-10-31T01:13:33;11.10;99.90
57088;DHT22;42965;52.846;6.614;2023-10-31T01:16:01;11.00;99.90
57088;DHT22;42965;52.846;6.614;2023-10-31T01:18:27;11.00;99.90
57088;DHT22;42965;52.846;6.614;2023-10-31T01:20:53;11.00;99.90
57088;DHT22;42965;52.846;6.614;2023-10-31T01:23:21;10.90;99.90
57088;DHT22;42965;52.846;6.614;2023-10-31T01:25:47;10.80;99.90
57088;DHT22;42965;52.846;6.614;2023-10-31T01:28:14;10.80;99.90
57088;DHT22;42965;52.846;6.614;2023-10-31T01:30:40;10.80;99.90
57088;DHT22;42965;52.846;6.614;2023-10-31T01:33:07;10.70;99.90
57088;DHT22;42965;52.846;6.614;2023-10-31T01:35:33;10.70;99.90
57088;DHT22;42965;52.846;6.614;2023-10-31T01:37:59;10.70;99.90
57088;DHT22;42965;52.846;6.614;2023-10-31T01:40:26;10.60;99.90
57088;DHT22;42965;52.846;6.614;2023-10-31T01:42:55;10.50;99.90
57088;DHT22;42965;52.846;6.614;2023-10-31T01:45:22;10.50;99.90
57088;DHT22;42965;52.846;6.614;2023-10-31T01:47:48;10.50;99.90
57088;DHT22;42965;52.846;6.614;2023-10-31T01:50:16;10.40;99.90
57088;DHT22;42965;52.846;6.614;2023-10-31T01:52:46;10.30;99.90
57088;DHT22;42965;52.846;6.614;2023-10-31T01:55:13;10.30;99.90
57088;DHT22;42965;52.846;6.614;2023-10-31T01:57:40;10.30;99.90
57088;DHT22;42965;52.846;6.614;2023-10-31T02:00:07;10.30;99.90
57088;DHT22;42965;52.846;6.614;2023-10-31T02:02:42;10.20;99.90
57088;DHT22;42965;52.846;6.614;2023-10-31T02:05:09;10.20;99.90
57088;DHT22;42965;52.846;6.614;2023-10-31T02:07:35;10.10;99.90
57088;DHT22;42965;52.846;6.614;2023-10-31T02:10:02;10.10;99.90
57088;DHT22;42965;52.846;6.614;2023-10-31T02:12:35;10.10;99.90
57088;DHT22;42965;52.846;6.614;2023-10-31T02:15:01;10.10;99.90
57088;DHT22;42965;52.846;6.614;2023-10-31T02:17:28;10.10;99.90
57088;DHT22;42965;52.846;6.614;2023-10-31T02:19:54;10.10;99.90
57088;DHT22;42965;52.846;6.614;2023-10-31T02:22:22;10.10;99.90
57088;DHT22;42965;52.846;6.614;2023-10-31T02:24:48;10.10;99.90
57088;DHT22;42965;52.846;6.614;2023-10-31T02:27:15;10.10;99.90
57088;DHT22;42965;52.846;6.614;2023-10-31T02:29:42;10.10;99.90
57088;DHT22;42965;52.846;6.614;2023-10-31T02:32:08;10.00;99.90
57088;DHT22;42965;52.846;6.614;2023-10-31T02:34:34;10.00;99.90
57088;DHT22;42965;52.846;6.614;2023-10-31T02:37:00;10.00;99.90
57088;DHT22;42965;52.846;6.614;2023-10-31T02:39:27;10.00;99.90
57088;DHT22;42965;52.846;6.614;2023-10-31T02:41:53;10.00;99.90
57088;DHT22;42965;52.846;6.614;2023-10-31T02:44:21;10.00;99.90
57088;DHT22;42965;52.846;6.614;2023-10-31T02:46:47;10.00;99.90
57088;DHT22;42965;52.846;6.614;2023-10-31T02:49:13;10.00;99.90
57088;DHT22;42965;52.846;6.614;2023-10-31T02:51:41;10.00;99.90
57088;DHT22;42965;52.846;6.614;2023-10-31T02:54:07;10.00;99.90
57088;DHT22;42965;52.846;6.614;2023-10-31T02:56:34;10.00;99.90
57088;DHT22;42965;52.846;6.614;2023-10-31T02:59:00;10.00;99.90
57088;DHT22;42965;52.846;6.614;2023-10-31T03:01:28;10.00;99.90
57088;DHT22;42965;52.846;6.614;2023-10-31T03:03:55;10.00;99.90
57088;DHT22;42965;52.846;6.614;2023-10-31T03:06:21;10.00;99.90
57088;DHT22;42965;52.846;6.614;2023-10-31T03:08:48;10.00;99.90
57088;DHT22;42965;52.846;6.614;2023-10-31T03:11:22;10.00;99.90
57088;DHT22;42965;52.846;6.614;2023-10-31T03:13:52;10.00;99.90
57088;DHT22;42965;52.846;6.614;2023-10-31T03:16:19;10.10;99.90
57088;DHT22;42965;52.846;6.614;2023-10-31T03:18:46;10.00;99.90
57088;DHT22;42965;52.846;6.614;2023-10-31T03:21:13;10.00;99.90
57088;DHT22;42965;52.846;6.614;2023-10-31T03:23:47;10.10;99.90
57088;DHT22;42965;52.846;6.614;2023-10-31T03:26:18;10.10;99.90
57088;DHT22;42965;52.846;6.614;2023-10-31T03:28:45;10.10;99.90
57088;DHT22;42965;52.846;6.614;2023-10-31T03:31:12;10.10;99.90
57088;DHT22;42965;52.846;6.614;2023-10-31T03:33:39;10.10;99.90
57088;DHT22;42965;52.846;6.614;2023-10-31T03:36:05;10.10;99.90
57088;DHT22;42965;52.846;6.614;2023-10-31T03:38:34;10.10;99.90
57088;DHT22;42965;52.846;6.614;2023-10-31T03:41:00;10.10;99.90
57088;DHT22;42965;52.846;6.614;2023-10-31T03:43:27;10.10;99.90
57088;DHT22;42965;52.846;6.614;2023-10-31T03:45:54;10.10;99.90
57088;DHT22;42965;52.846;6.614;2023-10-31T03:48:24;10.10;99.90
57088;DHT22;42965;52.846;6.614;2023-10-31T03:50:50;10.10;99.90
57088;DHT22;42965;52.846;6.614;2023-10-31T03:53:17;10.10;99.90
57088;DHT22;42965;52.846;6.614;2023-10-31T03:55:45;10.10;99.90
57088;DHT22;42965;52.846;6.614;2023-10-31T03:58:11;10.10;99.90
57088;DHT22;42965;52.846;6.614;2023-10-31T04:00:39;10.00;99.90
57088;DHT22;42965;52.846;6.614;2023-10-31T04:03:05;10.00;99.90
57088;DHT22;42965;52.846;6.614;2023-10-31T04:05:31;10.10;99.90
57088;DHT22;42965;52.846;6.614;2023-10-31T04:07:57;10.10;99.90
57088;DHT22;42965;52.846;6.614;2023-10-31T04:10:23;10.10;99.90
57088;DHT22;42965;52.846;6.614;2023-10-31T04:12:51;10.10;99.90
57088;DHT22;42965;52.846;6.614;2023-10-31T04:15:17;10.20;99.90
57088;DHT22;42965;52.846;6.614;2023-10-31T04:17:43;10.20;99.90
57088;DHT22;42965;52.846;6.614;2023-10-31T04:20:10;10.10;99.90
57088;DHT22;42965;52.846;6.614;2023-10-31T04:22:36;10.20;99.90
57088;DHT22;42965;52.846;6.614;2023-10-31T04:25:03;10.20;99.90
57088;DHT22;42965;52.846;6.614;2023-10-31T04:27:30;10.20;99.90
57088;DHT22;42965;52.846;6.614;2023-10-31T04:29:56;10.20;99.90
57088;DHT22;42965;52.846;6.614;2023-10-31T04:32:22;10.20;99.90
57088;DHT22;42965;52.846;6.614;2023-10-31T04:34:51;10.20;99.90
57088;DHT22;42965;52.846;6.614;2023-10-31T04:37:18;10.20;99.90
57088;DHT22;42965;52.846;6.614;2023-10-31T04:39:44;10.20;99.90
57088;DHT22;42965;52.846;6.614;2023-10-31T04:42:10;10.20;99.90
57088;DHT22;42965;52.846;6.614;2023-10-31T04:44:37;10.20;99.90
57088;DHT22;42965;52.846;6.614;2023-10-31T04:47:04;10.20;99.90
57088;DHT22;42965;52.846;6.614;2023-10-31T04:49:30;10.20;99.90
57088;DHT22;42965;52.846;6.614;2023-10-31T04:51:56;10.20;99.90
57088;DHT22;42965;52.846;6.614;2023-10-31T04:54:22;10.20;99.90
57088;DHT22;42965;52.846;6.614;2023-10-31T04:56:49;10.20;99.90
57088;DHT22;42965;52.846;6.614;2023-10-31T04:59:16;10.10;99.90
57088;DHT22;42965;52.846;6.614;2023-10-31T05:01:48;10.20;99.90
57088;DHT22;42965;52.846;6.614;2023-10-31T05:04:15;10.10;99.90
57088;DHT22;42965;52.846;6.614;2023-10-31T05:06:41;10.10;99.90
57088;DHT22;42965;52.846;6.614;2023-10-31T05:09:08;10.10;99.90
57088;DHT22;42965;52.846;6.614;2023-10-31T05:11:35;10.00;99.90
57088;DHT22;42965;52.846;6.614;2023-10-31T05:14:02;10.00;99.90
57088;DHT22;42965;52.846;6.614;2023-10-31T05:16:28;10.00;99.90
57088;DHT22;42965;52.846;6.614;2023-10-31T05:18:54;10.00;99.90
57088;DHT22;42965;52.846;6.614;2023-10-31T05:21:20;10.00;99.90
57088;DHT22;42965;52.846;6.614;2023-10-31T05:23:46;10.00;99.90
57088;DHT22;42965;52.846;6.614;2023-10-31T05:26:13;10.00;99.90
57088;DHT22;42965;52.846;6.614;2023-10-31T05:28:39;10.00;99.90
57088;DHT22;42965;52.846;6.614;2023-10-31T05:31:05;10.00;99.90
57088;DHT22;42965;52.846;6.614;2023-10-31T05:33:31;10.00;99.90
57088;DHT22;42965;52.846;6.614;2023-10-31T05:35:58;10.00;99.90
57088;DHT22;42965;52.846;6.614;2023-10-31T05:38:24;10.00;99.90
57088;DHT22;42965;52.846;6.614;2023-10-31T05:40:50;10.00;99.90
57088;DHT22;42965;52.846;6.614;2023-10-31T05:43:16;10.00;99.90
57088;DHT22;42965;52.846;6.614;2023-10-31T05:45:42;10.00;99.90
57088;DHT22;42965;52.846;6.614;2023-10-31T05:48:09;10.00;99.90
57088;DHT22;42965;52.846;6.614;2023-10-31T05:50:36;10.00;99.90
57088;DHT22;42965;52.846;6.614;2023-10-31T05:53:02;10.00;99.90
57088;DHT22;42965;52.846;6.614;2023-10-31T05:55:28;10.00;99.90
57088;DHT22;42965;52.846;6.614;2023-10-31T05:57:54;10.10;99.90
57088;DHT22;42965;52.846;6.614;2023-10-31T06:00:20;10.20;99.90
57088;DHT22;42965;52.846;6.614;2023-10-31T06:05:47;10.20;99.90
57088;DHT22;42965;52.846;6.614;2023-10-31T06:08:13;10.20;99.90
57088;DHT22;42965;52.846;6.614;2023-10-31T06:10:39;10.20;99.90
57088;DHT22;42965;52.846;6.614;2023-10-31T06:13:06;10.10;99.90
57088;DHT22;42965;52.846;6.614;2023-10-31T06:15:32;10.10;99.90
57088;DHT22;42965;52.846;6.614;2023-10-31T06:17:58;10.20;99.90
57088;DHT22;42965;52.846;6.614;2023-10-31T06:20:24;10.20;99.90
57088;DHT22;42965;52.846;6.614;2023-10-31T06:22:52;10.20;99.90
57088;DHT22;42965;52.846;6.614;2023-10-31T06:25:18;10.10;99.90
57088;DHT22;42965;52.846;6.614;2023-10-31T06:27:44;10.20;99.90
57088;DHT22;42965;52.846;6.614;2023-10-31T06:30:10;10.10;99.90
57088;DHT22;42965;52.846;6.614;2023-10-31T06:32:37;10.10;99.90
57088;DHT22;42965;52.846;6.614;2023-10-31T06:35:06;10.10;99.90
57088;DHT22;42965;52.846;6.614;2023-10-31T06:37:32;10.00;99.90
57088;DHT22;42965;52.846;6.614;2023-10-31T06:39:58;10.00;99.90
57088;DHT22;42965;52.846;6.614;2023-10-31T06:42:25;10.10;99.90
57088;DHT22;42965;52.846;6.614;2023-10-31T06:44:51;10.00;99.90
57088;DHT22;42965;52.846;6.614;2023-10-31T06:47:17;10.00;99.90
57088;DHT22;42965;52.846;6.614;2023-10-31T06:49:45;10.10;99.90
57088;DHT22;42965;52.846;6.614;2023-10-31T06:52:11;10.10;99.90
57088;DHT22;42965;52.846;6.614;2023-10-31T06:54:37;10.10;99.90
57088;DHT22;42965;52.846;6.614;2023-10-31T06:57:03;10.10;99.90
57088;DHT22;42965;52.846;6.614;2023-10-31T06:59:30;10.10;99.90
57088;DHT22;42965;52.846;6.614;2023-10-31T07:01:56;10.10;99.90
57088;DHT22;42965;52.846;6.614;2023-10-31T07:04:22;10.10;99.90
57088;DHT22;42965;52.846;6.614;2023-10-31T07:06:48;10.10;99.90
57088;DHT22;42965;52.846;6.614;2023-10-31T07:09:15;10.20;99.90
57088;DHT22;42965;52.846;6.614;2023-10-31T07:11:41;10.20;99.90
57088;DHT22;42965;52.846;6.614;2023-10-31T07:14:07;10.20;99.90
57088;DHT22;42965;52.846;6.614;2023-10-31T07:16:33;10.20;99.90
57088;DHT22;42965;52.846;6.614;2023-10-31T07:19:00;10.20;99.90
57088;DHT22;42965;52.846;6.614;2023-10-31T07:21:26;10.20;99.90
57088;DHT22;42965;52.846;6.614;2023-10-31T07:23:52;10.30;99.90
57088;DHT22;42965;52.846;6.614;2023-10-31T07:26:19;10.30;99.90
57088;DHT22;42965;52.846;6.614;2023-10-31T07:28:45;10.30;99.90
57088;DHT22;42965;52.846;6.614;2023-10-31T07:31:13;10.30;99.90
57088;DHT22;42965;52.846;6.614;2023-10-31T07:33:39;10.30;99.90
57088;DHT22;42965;52.846;6.614;2023-10-31T07:36:06;10.40;99.90
57088;DHT22;42965;52.846;6.614;2023-10-31T07:38:32;10.40;99.90
57088;DHT22;42965;52.846;6.614;2023-10-31T07:40:59;10.50;99.90
57088;DHT22;42965;52.846;6.614;2023-10-31T07:43:25;10.50;99.90
57088;DHT22;42965;52.846;6.614;2023-10-31T07:45:51;10.60;99.90
57088;DHT22;42965;52.846;6.614;2023-10-31T07:48:18;10.70;99.90
57088;DHT22;42965;52.846;6.614;2023-10-31T07:50:46;10.70;99.90
57088;DHT22;42965;52.846;6.614;2023-10-31T07:53:12;10.80;99.90
57088;DHT22;42965;52.846;6.614;2023-10-31T07:55:38;10.80;99.90
57088;DHT22;42965;52.846;6.614;2023-10-31T07:58:04;10.90;99.90
57088;DHT22;42965;52.846;6.614;2023-10-31T08:00:38;10.90;99.90
57088;DHT22;42965;52.846;6.614;2023-10-31T08:03:05;11.00;99.90
57088;DHT22;42965;52.846;6.614;2023-10-31T08:05:31;11.00;99.90
57088;DHT22;42965;52.846;6.614;2023-10-31T08:07:57;11.10;99.90
57088;DHT22;42965;52.846;6.614;2023-10-31T08:10:24;11.10;99.90
57088;DHT22;42965;52.846;6.614;2023-10-31T08:12:50;11.10;99.90
57088;DHT22;42965;52.846;6.614;2023-10-31T08:15:17;11.10;99.90
57088;DHT22;42965;52.846;6.614;2023-10-31T08:17:43;11.20;99.90
57088;DHT22;42965;52.846;6.614;2023-10-31T08:20:09;11.30;99.90
57088;DHT22;42965;52.846;6.614;2023-10-31T08:22:37;11.40;99.90
57088;DHT22;42965;52.846;6.614;2023-10-31T08:25:03;11.40;99.90
57088;DHT22;42965;52.846;6.614;2023-10-31T08:27:30;11.60;99.90
57088;DHT22;42965;52.846;6.614;2023-10-31T08:29:56;11.70;99.90
57088;DHT22;42965;52.846;6.614;2023-10-31T08:32:22;11.90;99.90
57088;DHT22;42965;52.846;6.614;2023-10-31T08:34:50;12.10;99.90
57088;DHT22;42965;52.846;6.614;2023-10-31T08:37:17;12.30;99.90
57088;DHT22;42965;52.846;6.614;2023-10-31T08:39:43;12.40;99.90
57088;DHT22;42965;52.846;6.614;2023-10-31T08:42:10;12.60;99.90
57088;DHT22;42965;52.846;6.614;2023-10-31T08:44:36;12.60;99.90
57088;DHT22;42965;52.846;6.614;2023-10-31T08:47:04;12.60;99.90
57088;DHT22;42965;52.846;6.614;2023-10-31T08:49:30;12.70;99.90
57088;DHT22;42965;52.846;6.614;2023-10-31T08:51:57;12.60;99.90
57088;DHT22;42965;52.846;6.614;2023-10-31T08:54:23;12.50;99.90
57088;DHT22;42965;52.846;6.614;2023-10-31T08:56:50;12.60;99.90
57088;DHT22;42965;52.846;6.614;2023-10-31T08:59:16;13.00;99.90
57088;DHT22;42965;52.846;6.614;2023-10-31T09:01:42;13.10;99.90
57088;DHT22;42965;52.846;6.614;2023-10-31T09:04:08;13.10;99.90
57088;DHT22;42965;52.846;6.614;2023-10-31T09:06:37;13.00;99.90
57088;DHT22;42965;52.846;6.614;2023-10-31T09:09:03;12.90;99.90
57088;DHT22;42965;52.846;6.614;2023-10-31T09:11:30;13.30;99.90
57088;DHT22;42965;52.846;6.614;2023-10-31T09:13:56;13.90;99.90
57088;DHT22;42965;52.846;6.614;2023-10-31T09:16:22;14.30;99.90
57088;DHT22;42965;52.846;6.614;2023-10-31T09:18:51;14.80;99.90
57088;DHT22;42965;52.846;6.614;2023-10-31T09:21:18;15.30;99.90
57088;DHT22;42965;52.846;6.614;2023-10-31T09:23:45;15.40;99.90
57088;DHT22;42965;52.846;6.614;2023-10-31T09:26:11;15.00;99.90
57088;DHT22;42965;52.846;6.614;2023-10-31T09:28:37;14.60;99.90
57088;DHT22;42965;52.846;6.614;2023-10-31T09:31:05;14.20;99.90
57088;DHT22;42965;52.846;6.614;2023-10-31T09:33:31;13.60;99.90
57088;DHT22;42965;52.846;6.614;2023-10-31T09:35:58;13.70;99.90
57088;DHT22;42965;52.846;6.614;2023-10-31T09:38:24;14.00;99.90
57088;DHT22;42965;52.846;6.614;2023-10-31T09:40:50;14.20;99.90
57088;DHT22;42965;52.846;6.614;2023-10-31T09:43:16;14.40;99.90
57088;DHT22;42965;52.846;6.614;2023-10-31T09:45:43;14.30;99.90
57088;DHT22;42965;52.846;6.614;2023-10-31T09:48:11;14.10;99.90
57088;DHT22;42965;52.846;6.614;2023-10-31T09:50:37;13.80;99.90
57088;DHT22;42965;52.846;6.614;2023-10-31T09:53:06;13.60;99.90
57088;DHT22;42965;52.846;6.614;2023-10-31T09:55:33;13.40;99.90
57088;DHT22;42965;52.846;6.614;2023-10-31T09:58:02;13.20;99.90
57088;DHT22;42965;52.846;6.614;2023-10-31T10:00:28;13.00;99.90
57088;DHT22;42965;52.846;6.614;2023-10-31T10:02:55;12.80;99.90
57088;DHT22;42965;52.846;6.614;2023-10-31T10:05:23;12.70;99.90
57088;DHT22;42965;52.846;6.614;2023-10-31T10:07:49;12.50;99.90
57088;DHT22;42965;52.846;6.614;2023-10-31T10:10:16;12.50;99.90
57088;DHT22;42965;52.846;6.614;2023-10-31T10:12:43;12.60;99.90
57088;DHT22;42965;52.846;6.614;2023-10-31T10:15:10;12.50;99.90
57088;DHT22;42965;52.846;6.614;2023-10-31T10:17:37;12.30;99.90
57088;DHT22;42965;52.846;6.614;2023-10-31T10:20:10;12.40;99.90
57088;DHT22;42965;52.846;6.614;2023-10-31T10:22:41;12.40;99.90
57088;DHT22;42965;52.846;6.614;2023-10-31T10:25:12;12.30;99.90
57088;DHT22;42965;52.846;6.614;2023-10-31T10:27:40;12.40;99.90
57088;DHT22;42965;52.846;6.614;2023-10-31T10:30:07;12.40;99.90
57088;DHT22;42965;52.846;6.614;2023-10-31T10:32:34;12.30;99.90
57088;DHT22;42965;52.846;6.614;2023-10-31T10:35:00;12.20;99.90
57088;DHT22;42965;52.846;6.614;2023-10-31T10:37:27;12.20;99.90
57088;DHT22;42965;52.846;6.614;2023-10-31T10:39:53;12.20;99.90
57088;DHT22;42965;52.846;6.614;2023-10-31T10:45:04;12.10;99.90
57088;DHT22;42965;52.846;6.614;2023-10-31T10:47:33;12.20;99.90
57088;DHT22;42965;52.846;6.614;2023-10-31T10:50:01;12.20;99.90
57088;DHT22;42965;52.846;6.614;2023-10-31T10:52:57;12.20;99.90
57088;DHT22;42965;52.846;6.614;2023-10-31T10:55:28;12.30;99.90
57088;DHT22;42965;52.846;6.614;2023-10-31T10:58:09;12.30;99.90
57088;DHT22;42965;52.846;6.614;2023-10-31T11:00:40;12.50;99.90
57088;DHT22;42965;52.846;6.614;2023-10-31T11:03:07;12.50;99.90
57088;DHT22;42965;52.846;6.614;2023-10-31T11:05:35;12.70;99.90
57088;DHT22;42965;52.846;6.614;2023-10-31T11:08:02;12.80;99.90
57088;DHT22;42965;52.846;6.614;2023-10-31T11:10:29;12.80;99.90
57088;DHT22;42965;52.846;6.614;2023-10-31T11:12:55;12.80;99.90
57088;DHT22;42965;52.846;6.614;2023-10-31T11:15:24;12.90;99.90
57088;DHT22;42965;52.846;6.614;2023-10-31T11:17:51;12.80;99.90
57088;DHT22;42965;52.846;6.614;2023-10-31T11:20:19;12.80;99.90
57088;DHT22;42965;52.846;6.614;2023-10-31T11:22:46;12.80;99.90
57088;DHT22;42965;52.846;6.614;2023-10-31T11:25:18;12.80;99.90
57088;DHT22;42965;52.846;6.614;2023-10-31T11:27:53;12.80;99.90
57088;DHT22;42965;52.846;6.614;2023-10-31T11:30:29;12.70;99.90
57088;DHT22;42965;52.846;6.614;2023-10-31T11:32:58;12.70;99.90
57088;DHT22;42965;52.846;6.614;2023-10-31T11:35:25;12.70;99.90
57088;DHT22;42965;52.846;6.614;2023-10-31T11:38:02;12.70;99.90
57088;DHT22;42965;52.846;6.614;2023-10-31T11:40:29;12.70;99.90
57088;DHT22;42965;52.846;6.614;2023-10-31T11:43:02;12.60;99.90
57088;DHT22;42965;52.846;6.614;2023-10-31T11:45:35;12.50;99.90
57088;DHT22;42965;52.846;6.614;2023-10-31T11:48:03;12.50;99.90
57088;DHT22;42965;52.846;6.614;2023-10-31T11:50:35;12.50;99.90
57088;DHT22;42965;52.846;6.614;2023-10-31T11:53:10;12.50;99.90
57088;DHT22;42965;52.846;6.614;2023-10-31T11:55:41;12.60;99.90
57088;DHT22;42965;52.846;6.614;2023-10-31T11:58:22;12.70;99.90
57088;DHT22;42965;52.846;6.614;2023-10-31T12:00:53;12.70;99.90
57088;DHT22;42965;52.846;6.614;2023-10-31T12:03:26;12.70;99.90
57088;DHT22;42965;52.846;6.614;2023-10-31T12:08:33;12.50;99.90
57088;DHT22;42965;52.846;6.614;2023-10-31T12:11:14;12.30;99.90
57088;DHT22;42965;52.846;6.614;2023-10-31T12:14:00;12.30;99.90
57088;DHT22;42965;52.846;6.614;2023-10-31T12:16:28;12.20;99.90
57088;DHT22;42965;52.846;6.614;2023-10-31T12:18:59;12.10;99.90
57088;DHT22;42965;52.846;6.614;2023-10-31T12:24:05;11.90;99.90
57088;DHT22;42965;52.846;6.614;2023-10-31T12:26:34;12.00;99.90
57088;DHT22;42965;52.846;6.614;2023-10-31T12:29:12;12.00;99.90
57088;DHT22;42965;52.846;6.614;2023-10-31T12:31:49;12.00;99.90
57088;DHT22;42965;52.846;6.614;2023-10-31T12:34:22;12.00;99.90
57088;DHT22;42965;52.846;6.614;2023-10-31T12:36:51;12.00;99.90
57088;DHT22;42965;52.846;6.614;2023-10-31T12:39:24;12.10;99.90
57088;DHT22;42965;52.846;6.614;2023-10-31T12:41:55;12.10;99.90
57088;DHT22;42965;52.846;6.614;2023-10-31T12:44:24;12.10;99.90
57088;DHT22;42965;52.846;6.614;2023-10-31T12:46:52;12.20;99.90
57088;DHT22;42965;52.846;6.614;2023-10-31T12:49:20;12.10;99.90
57088;DHT22;42965;52.846;6.614;2023-10-31T12:52:15;12.10;99.90
57088;DHT22;42965;52.846;6.614;2023-10-31T12:54:42;12.10;99.90
57088;DHT22;42965;52.846;6.614;2023-10-31T12:57:09;12.20;99.90
57088;DHT22;42965;52.846;6.614;2023-10-31T12:59:37;12.30;99.90
57088;DHT22;42965;52.846;6.614;2023-10-31T13:02:07;12.40;99.90
57088;DHT22;42965;52.846;6.614;2023-10-31T13:04:33;12.40;99.90
57088;DHT22;42965;52.846;6.614;2023-10-31T13:07:04;12.40;99.90
57088;DHT22;42965;52.846;6.614;2023-10-31T13:09:32;12.30;99.90
57088;DHT22;42965;52.846;6.614;2023-10-31T13:12:03;12.30;99.90
57088;DHT22;42965;52.846;6.614;2023-10-31T13:14:30;12.30;99.90
57088;DHT22;42965;52.846;6.614;2023-10-31T13:16:59;12.20;99.90
57088;DHT22;42965;52.846;6.614;2023-10-31T13:19:26;12.20;99.90
57088;DHT22;42965;52.846;6.614;2023-10-31T13:21:52;12.10;99.90
57088;DHT22;42965;52.846;6.614;2023-10-31T13:24:18;12.10;99.90
57088;DHT22;42965;52.846;6.614;2023-10-31T13:26:45;12.30;99.90
57088;DHT22;42965;52.846;6.614;2023-10-31T13:29:18;12.90;99.90
57088;DHT22;42965;52.846;6.614;2023-10-31T13:31:45;13.60;99.90
57088;DHT22;42965;52.846;6.614;2023-10-31T13:34:11;13.90;99.90
57088;DHT22;42965;52.846;6.614;2023-10-31T13:36:37;14.10;99.90
57088;DHT22;42965;52.846;6.614;2023-10-31T13:39:04;14.70;99.90
57088;DHT22;42965;52.846;6.614;2023-10-31T13:41:30;15.40;99.90
57088;DHT22;42965;52.846;6.614;2023-10-31T13:43:57;16.40;99.90
57088;DHT22;42965;52.846;6.614;2023-10-31T13:46:23;17.40;99.90
57088;DHT22;42965;52.846;6.614;2023-10-31T13:48:49;18.20;99.90
57088;DHT22;42965;52.846;6.614;2023-10-31T13:51:16;19.10;99.90
57088;DHT22;42965;52.846;6.614;2023-10-31T13:53:42;19.30;99.90
57088;DHT22;42965;52.846;6.614;2023-10-31T13:56:09;19.50;99.90
57088;DHT22;42965;52.846;6.614;2023-10-31T13:58:36;18.90;99.90
57088;DHT22;42965;52.846;6.614;2023-10-31T14:01:03;18.10;99.90
57088;DHT22;42965;52.846;6.614;2023-10-31T14:03:29;17.80;99.90
57088;DHT22;42965;52.846;6.614;2023-10-31T14:05:56;17.90;99.90
57088;DHT22;42965;52.846;6.614;2023-10-31T14:08:23;18.00;99.90
57088;DHT22;42965;52.846;6.614;2023-10-31T14:10:51;18.50;99.90
57088;DHT22;42965;52.846;6.614;2023-10-31T14:13:18;18.90;99.90
57088;DHT22;42965;52.846;6.614;2023-10-31T14:15:46;19.10;99.90
57088;DHT22;42965;52.846;6.614;2023-10-31T14:18:12;19.40;99.90
57088;DHT22;42965;52.846;6.614;2023-10-31T14:20:39;19.60;99.90
57088;DHT22;42965;52.846;6.614;2023-10-31T14:23:06;19.80;99.90
57088;DHT22;42965;52.846;6.614;2023-10-31T14:25:32;19.50;99.90
57088;DHT22;42965;52.846;6.614;2023-10-31T14:27:59;19.70;99.90
57088;DHT22;42965;52.846;6.614;2023-10-31T14:30:25;19.70;99.90
57088;DHT22;42965;52.846;6.614;2023-10-31T14:32:51;19.20;99.90
57088;DHT22;42965;52.846;6.614;2023-10-31T14:35:18;18.40;99.90
57088;DHT22;42965;52.846;6.614;2023-10-31T14:37:45;17.80;99.90
57088;DHT22;42965;52.846;6.614;2023-10-31T14:40:11;17.30;99.90
57088;DHT22;42965;52.846;6.614;2023-10-31T14:42:37;16.80;99.90
57088;DHT22;42965;52.846;6.614;2023-10-31T14:45:04;16.30;99.90
57088;DHT22;42965;52.846;6.614;2023-10-31T14:47:33;15.90;99.90
57088;DHT22;42965;52.846;6.614;2023-10-31T14:49:59;15.50;99.90
57088;DHT22;42965;52.846;6.614;2023-10-31T14:52:25;15.30;99.90
57088;DHT22;42965;52.846;6.614;2023-10-31T14:54:51;14.90;99.90
57088;DHT22;42965;52.846;6.614;2023-10-31T14:57:18;14.60;99.90
57088;DHT22;42965;52.846;6.614;2023-10-31T14:59:46;14.20;99.90
57088;DHT22;42965;52.846;6.614;2023-10-31T15:02:12;13.90;99.90
57088;DHT22;42965;52.846;6.614;2023-10-31T15:04:39;13.60;99.90
57088;DHT22;42965;52.846;6.614;2023-10-31T15:07:05;13.40;99.90
57088;DHT22;42965;52.846;6.614;2023-10-31T15:09:31;13.10;99.90
57088;DHT22;42965;52.846;6.614;2023-10-31T15:11:57;12.90;99.90
57088;DHT22;42965;52.846;6.614;2023-10-31T15:14:23;12.90;99.90
57088;DHT22;42965;52.846;6.614;2023-10-31T15:16:50;12.60;99.90
57088;DHT22;42965;52.846;6.614;2023-10-31T15:19:16;12.50;99.90
57088;DHT22;42965;52.846;6.614;2023-10-31T15:21:42;12.40;99.90
57088;DHT22;42965;52.846;6.614;2023-10-31T15:24:09;12.30;99.90
57088;DHT22;42965;52.846;6.614;2023-10-31T15:26:37;12.30;99.90
57088;DHT22;42965;52.846;6.614;2023-10-31T15:29:05;12.20;99.90
57088;DHT22;42965;52.846;6.614;2023-10-31T15:31:32;12.10;99.90
57088;DHT22;42965;52.846;6.614;2023-10-31T15:33:59;12.10;99.90
57088;DHT22;42965;52.846;6.614;2023-10-31T15:36:25;12.00;99.90
57088;DHT22;42965;52.846;6.614;2023-10-31T15:38:52;11.90;99.90
57088;DHT22;42965;52.846;6.614;2023-10-31T15:41:18;11.80;99.90